sensor_id;sensor_type;location;lat;lon;timestamp;temperature;humidity
7194;DHT22;3638;48.820;9.244;2023-01-26T00:02:22;1.90;99.90
7194;DHT22;3638;48.820;9.244;2023-01-26T00:04:49;1.90;99.90
7194;DHT22;3638;48.820;9.244;2023-01-26T00:07:16;2.00;99.90
7194;DHT22;3638;48.820;9.244;2023-01-26T00:09:43;1.80;99.90
7194;DHT22;3638;48.820;9.244;2023-01-26T00:12:10;1.60;99.90
7194;DHT22;3638;48.820;9.244;2023-01-26T00:14:38;1.50;99.90
7194;DHT22;3638;48.820;9.244;2023-01-26T00:17:18;1.60;99.90
7194;DHT22;3638;48.820;9.244;2023-01-26T00:19:54;1.50;99.90
7194;DHT22;3638;48.820;9.244;2023-01-26T00:22:22;1.60;99.90
7194;DHT22;3638;48.820;9.244;2023-01-26T00:24:50;1.60;99.90
7194;DHT22;3638;48.820;9.244;2023-01-26T00:27:17;1.60;99.90
7194;DHT22;3638;48.820;9.244;2023-01-26T00:29:45;1.70;99.90
7194;DHT22;3638;48.820;9.244;2023-01-26T00:32:12;1.60;99.90
7194;DHT22;3638;48.820;9.244;2023-01-26T00:34:39;1.50;99.90
7194;DHT22;3638;48.820;9.244;2023-01-26T00:37:05;1.50;99.90
7194;DHT22;3638;48.820;9.244;2023-01-26T00:39:32;1.50;99.90
7194;DHT22;3638;48.820;9.244;2023-01-26T00:41:59;1.40;99.90
7194;DHT22;3638;48.820;9.244;2023-01-26T00:44:35;1.40;99.90
7194;DHT22;3638;48.820;9.244;2023-01-26T00:47:04;1.30;99.90
7194;DHT22;3638;48.820;9.244;2023-01-26T00:49:32;1.30;99.90
7194;DHT22;3638;48.820;9.244;2023-01-26T00:51:59;1.30;99.90
7194;DHT22;3638;48.820;9.244;2023-01-26T00:54:27;1.30;99.90
7194;DHT22;3638;48.820;9.244;2023-01-26T00:56:54;1.30;99.90
7194;DHT22;3638;48.820;9.244;2023-01-26T00:59:21;1.30;99.90
7194;DHT22;3638;48.820;9.244;2023-01-26T01:01:48;1.40;99.90
7194;DHT22;3638;48.820;9.244;2023-01-26T01:04:17;1.30;99.90
7194;DHT22;3638;48.820;9.244;2023-01-26T01:06:44;1.40;99.90
7194;DHT22;3638;48.820;9.244;2023-01-26T01:09:11;1.40;99.90
7194;DHT22;3638;48.820;9.244;2023-01-26T01:11:38;1.40;99.90
7194;DHT22;3638;48.820;9.244;2023-01-26T01:14:05;1.40;99.90
7194;DHT22;3638;48.820;9.244;2023-01-26T01:16:32;1.40;99.90
7194;DHT22;3638;48.820;9.244;2023-01-26T01:18:59;1.40;99.90
7194;DHT22;3638;48.820;9.244;2023-01-26T01:21:27;1.30;99.90
7194;DHT22;3638;48.820;9.244;2023-01-26T01:23:54;1.30;99.90
7194;DHT22;3638;48.820;9.244;2023-01-26T01:26:20;1.30;99.90
7194;DHT22;3638;48.820;9.244;2023-01-26T01:28:47;1.20;99.90
7194;DHT22;3638;48.820;9.244;2023-01-26T01:31:15;1.10;99.90
7194;DHT22;3638;48.820;9.244;2023-01-26T01:33:43;2.70;99.90
7194;DHT22;3638;48.820;9.244;2023-01-26T01:36:11;1.20;99.90
7194;DHT22;3638;48.820;9.244;2023-01-26T01:38:41;1.30;99.90
7194;DHT22;3638;48.820;9.244;2023-01-26T01:41:08;1.20;99.90
7194;DHT22;3638;48.820;9.244;2023-01-26T01:43:36;1.20;99.90
7194;DHT22;3638;48.820;9.244;2023-01-26T01:46:06;1.30;99.90
7194;DHT22;3638;48.820;9.244;2023-01-26T01:48:46;1.20;99.90
7194;DHT22;3638;48.820;9.244;2023-01-26T01:51:18;1.30;99.90
7194;DHT22;3638;48.820;9.244;2023-01-26T01:53:49;1.20;99.90
7194;DHT22;3638;48.820;9.244;2023-01-26T01:56:20;1.20;99.90
7194;DHT22;3638;48.820;9.244;2023-01-26T01:58:52;1.20;99.90
7194;DHT22;3638;48.820;9.244;2023-01-26T02:01:20;1.20;99.90
7194;DHT22;3638;48.820;9.244;2023-01-26T02:03:49;1.10;99.90
7194;DHT22;3638;48.820;9.244;2023-01-26T02:06:21;1.10;99.90
7194;DHT22;3638;48.820;9.244;2023-01-26T02:08:54;1.00;99.90
7194;DHT22;3638;48.820;9.244;2023-01-26T02:11:23;1.00;99.90
7194;DHT22;3638;48.820;9.244;2023-01-26T02:13:51;1.10;99.90
7194;DHT22;3638;48.820;9.244;2023-01-26T02:16:19;1.20;99.90
7194;DHT22;3638;48.820;9.244;2023-01-26T02:18:46;1.10;99.90
7194;DHT22;3638;48.820;9.244;2023-01-26T02:21:16;1.20;99.90
7194;DHT22;3638;48.820;9.244;2023-01-26T02:24:00;1.20;99.90
7194;DHT22;3638;48.820;9.244;2023-01-26T02:26:34;1.20;99.90
7194;DHT22;3638;48.820;9.244;2023-01-26T02:29:03;1.20;99.90
7194;DHT22;3638;48.820;9.244;2023-01-26T02:31:32;1.20;99.90
7194;DHT22;3638;48.820;9.244;2023-01-26T02:33:59;1.10;99.90
7194;DHT22;3638;48.820;9.244;2023-01-26T02:36:28;1.10;99.90
7194;DHT22;3638;48.820;9.244;2023-01-26T02:39:03;1.10;99.90
7194;DHT22;3638;48.820;9.244;2023-01-26T02:41:43;1.00;99.90
7194;DHT22;3638;48.820;9.244;2023-01-26T02:44:29;1.00;99.90
7194;DHT22;3638;48.820;9.244;2023-01-26T02:46:57;1.00;99.90
7194;DHT22;3638;48.820;9.244;2023-01-26T02:49:24;1.00;99.90
7194;DHT22;3638;48.820;9.244;2023-01-26T02:52:08;0.90;99.90
7194;DHT22;3638;48.820;9.244;2023-01-26T02:54:35;0.90;99.90
7194;DHT22;3638;48.820;9.244;2023-01-26T02:57:33;1.00;99.90
7194;DHT22;3638;48.820;9.244;2023-01-26T03:00:00;0.90;99.90
7194;DHT22;3638;48.820;9.244;2023-01-26T03:02:27;0.80;99.90
7194;DHT22;3638;48.820;9.244;2023-01-26T03:04:53;0.90;99.90
7194;DHT22;3638;48.820;9.244;2023-01-26T03:07:20;0.70;99.90
7194;DHT22;3638;48.820;9.244;2023-01-26T03:09:47;0.70;99.90
7194;DHT22;3638;48.820;9.244;2023-01-26T03:12:14;0.80;99.90
7194;DHT22;3638;48.820;9.244;2023-01-26T03:14:42;0.80;99.90
7194;DHT22;3638;48.820;9.244;2023-01-26T03:17:09;0.80;99.90
7194;DHT22;3638;48.820;9.244;2023-01-26T03:19:36;0.80;99.90
7194;DHT22;3638;48.820;9.244;2023-01-26T03:22:20;0.70;99.90
7194;DHT22;3638;48.820;9.244;2023-01-26T03:25:05;0.70;99.90
7194;DHT22;3638;48.820;9.244;2023-01-26T03:27:50;0.70;99.90
7194;DHT22;3638;48.820;9.244;2023-01-26T03:30:19;0.70;99.90
7194;DHT22;3638;48.820;9.244;2023-01-26T03:32:46;0.80;99.90
7194;DHT22;3638;48.820;9.244;2023-01-26T03:35:12;0.80;99.90
7194;DHT22;3638;48.820;9.244;2023-01-26T03:37:41;0.80;99.90
7194;DHT22;3638;48.820;9.244;2023-01-26T03:40:09;0.80;99.90
7194;DHT22;3638;48.820;9.244;2023-01-26T03:42:54;0.80;99.90
7194;DHT22;3638;48.820;9.244;2023-01-26T03:45:40;0.80;99.90
7194;DHT22;3638;48.820;9.244;2023-01-26T03:48:25;0.80;99.90
7194;DHT22;3638;48.820;9.244;2023-01-26T03:51:09;0.80;99.90
7194;DHT22;3638;48.820;9.244;2023-01-26T03:53:54;0.90;99.90
7194;DHT22;3638;48.820;9.244;2023-01-26T03:56:38;0.90;99.90
7194;DHT22;3638;48.820;9.244;2023-01-26T03:59:07;0.90;99.90
7194;DHT22;3638;48.820;9.244;2023-01-26T04:01:36;0.90;99.90
7194;DHT22;3638;48.820;9.244;2023-01-26T04:04:06;0.90;99.90
7194;DHT22;3638;48.820;9.244;2023-01-26T04:06:51;0.90;99.90
7194;DHT22;3638;48.820;9.244;2023-01-26T04:09:37;0.90;99.90
7194;DHT22;3638;48.820;9.244;2023-01-26T04:12:05;0.80;99.90
7194;DHT22;3638;48.820;9.244;2023-01-26T04:14:34;0.90;99.90
7194;DHT22;3638;48.820;9.244;2023-01-26T04:17:20;0.90;99.90
7194;DHT22;3638;48.820;9.244;2023-01-26T04:20:06;0.90;99.90
7194;DHT22;3638;48.820;9.244;2023-01-26T04:22:51;0.90;99.90
7194;DHT22;3638;48.820;9.244;2023-01-26T04:25:20;0.90;99.90
7194;DHT22;3638;48.820;9.244;2023-01-26T04:27:47;0.70;99.90
7194;DHT22;3638;48.820;9.244;2023-01-26T04:30:15;0.70;99.90
7194;DHT22;3638;48.820;9.244;2023-01-26T04:32:44;0.60;99.90
7194;DHT22;3638;48.820;9.244;2023-01-26T04:35:11;0.60;99.90
7194;DHT22;3638;48.820;9.244;2023-01-26T04:37:38;0.60;99.90
7194;DHT22;3638;48.820;9.244;2023-01-26T04:40:07;0.50;99.90
7194;DHT22;3638;48.820;9.244;2023-01-26T04:42:34;0.50;99.90
7194;DHT22;3638;48.820;9.244;2023-01-26T04:45:01;0.50;99.90
7194;DHT22;3638;48.820;9.244;2023-01-26T04:47:28;0.50;99.90
7194;DHT22;3638;48.820;9.244;2023-01-26T04:49:56;0.60;99.90
7194;DHT22;3638;48.820;9.244;2023-01-26T04:52:23;0.50;99.90
7194;DHT22;3638;48.820;9.244;2023-01-26T04:54:50;0.50;99.90
7194;DHT22;3638;48.820;9.244;2023-01-26T04:57:17;0.50;99.90
7194;DHT22;3638;48.820;9.244;2023-01-26T04:59:44;0.40;99.90
7194;DHT22;3638;48.820;9.244;2023-01-26T05:02:11;0.50;99.90
7194;DHT22;3638;48.820;9.244;2023-01-26T05:04:38;0.50;99.90
7194;DHT22;3638;48.820;9.244;2023-01-26T05:07:06;0.40;99.90
7194;DHT22;3638;48.820;9.244;2023-01-26T05:09:33;0.50;99.90
7194;DHT22;3638;48.820;9.244;2023-01-26T05:12:00;0.40;99.90
7194;DHT22;3638;48.820;9.244;2023-01-26T05:14:57;0.50;99.90
7194;DHT22;3638;48.820;9.244;2023-01-26T05:17:24;0.50;99.90
7194;DHT22;3638;48.820;9.244;2023-01-26T05:19:51;0.40;99.90
7194;DHT22;3638;48.820;9.244;2023-01-26T05:22:19;0.50;99.90
7194;DHT22;3638;48.820;9.244;2023-01-26T05:24:46;0.40;99.90
7194;DHT22;3638;48.820;9.244;2023-01-26T05:27:12;0.40;99.90
7194;DHT22;3638;48.820;9.244;2023-01-26T05:29:49;0.50;99.90
7194;DHT22;3638;48.820;9.244;2023-01-26T05:32:17;0.40;99.90
7194;DHT22;3638;48.820;9.244;2023-01-26T05:34:44;0.30;99.90
7194;DHT22;3638;48.820;9.244;2023-01-26T05:37:11;0.40;99.90
7194;DHT22;3638;48.820;9.244;2023-01-26T05:39:39;0.40;99.90
7194;DHT22;3638;48.820;9.244;2023-01-26T05:42:06;0.50;99.90
7194;DHT22;3638;48.820;9.244;2023-01-26T05:44:33;0.40;99.90
7194;DHT22;3638;48.820;9.244;2023-01-26T05:46:59;0.50;99.90
7194;DHT22;3638;48.820;9.244;2023-01-26T05:49:26;0.40;99.90
7194;DHT22;3638;48.820;9.244;2023-01-26T05:51:53;0.40;99.90
7194;DHT22;3638;48.820;9.244;2023-01-26T05:54:20;0.30;99.90
7194;DHT22;3638;48.820;9.244;2023-01-26T05:56:48;0.30;99.90
7194;DHT22;3638;48.820;9.244;2023-01-26T05:59:15;0.30;99.90
7194;DHT22;3638;48.820;9.244;2023-01-26T06:01:42;0.40;99.90
7194;DHT22;3638;48.820;9.244;2023-01-26T06:04:09;0.30;99.90
7194;DHT22;3638;48.820;9.244;2023-01-26T06:06:36;0.30;99.90
7194;DHT22;3638;48.820;9.244;2023-01-26T06:09:02;0.30;99.90
7194;DHT22;3638;48.820;9.244;2023-01-26T06:11:31;0.30;99.90
7194;DHT22;3638;48.820;9.244;2023-01-26T06:13:59;0.20;99.90
7194;DHT22;3638;48.820;9.244;2023-01-26T06:16:26;0.20;99.90
7194;DHT22;3638;48.820;9.244;2023-01-26T06:18:53;0.20;99.90
7194;DHT22;3638;48.820;9.244;2023-01-26T06:21:20;0.20;99.90
7194;DHT22;3638;48.820;9.244;2023-01-26T06:23:47;0.30;99.90
7194;DHT22;3638;48.820;9.244;2023-01-26T06:26:14;0.20;99.90
7194;DHT22;3638;48.820;9.244;2023-01-26T06:28:41;0.20;99.90
7194;DHT22;3638;48.820;9.244;2023-01-26T06:31:09;0.20;99.90
7194;DHT22;3638;48.820;9.244;2023-01-26T06:33:37;0.20;99.90
7194;DHT22;3638;48.820;9.244;2023-01-26T06:36:05;0.10;99.90
7194;DHT22;3638;48.820;9.244;2023-01-26T06:38:34;0.10;99.90
7194;DHT22;3638;48.820;9.244;2023-01-26T06:41:02;0.10;99.90
7194;DHT22;3638;48.820;9.244;2023-01-26T06:43:30;0.10;99.90
7194;DHT22;3638;48.820;9.244;2023-01-26T06:45:58;0.10;99.90
7194;DHT22;3638;48.820;9.244;2023-01-26T06:48:29;0.20;99.90
7194;DHT22;3638;48.820;9.244;2023-01-26T06:51:02;0.20;99.90
7194;DHT22;3638;48.820;9.244;2023-01-26T06:53:33;0.20;99.90
7194;DHT22;3638;48.820;9.244;2023-01-26T06:56:00;0.30;99.90
7194;DHT22;3638;48.820;9.244;2023-01-26T06:58:27;0.30;99.90
7194;DHT22;3638;48.820;9.244;2023-01-26T07:00:54;0.30;99.90
7194;DHT22;3638;48.820;9.244;2023-01-26T07:03:22;0.30;99.90
7194;DHT22;3638;48.820;9.244;2023-01-26T07:05:50;0.30;99.90
7194;DHT22;3638;48.820;9.244;2023-01-26T07:08:17;0.30;99.90
7194;DHT22;3638;48.820;9.244;2023-01-26T07:10:44;0.30;99.90
7194;DHT22;3638;48.820;9.244;2023-01-26T07:13:11;0.30;99.90
7194;DHT22;3638;48.820;9.244;2023-01-26T07:15:38;0.20;99.90
7194;DHT22;3638;48.820;9.244;2023-01-26T07:18:04;0.30;99.90
7194;DHT22;3638;48.820;9.244;2023-01-26T07:20:31;0.20;99.90
7194;DHT22;3638;48.820;9.244;2023-01-26T07:22:59;0.20;99.90
7194;DHT22;3638;48.820;9.244;2023-01-26T07:25:27;0.20;99.90
7194;DHT22;3638;48.820;9.244;2023-01-26T07:27:58;0.20;99.90
7194;DHT22;3638;48.820;9.244;2023-01-26T07:30:25;0.30;99.90
7194;DHT22;3638;48.820;9.244;2023-01-26T07:32:52;0.20;99.90
7194;DHT22;3638;48.820;9.244;2023-01-26T07:35:18;0.20;99.90
7194;DHT22;3638;48.820;9.244;2023-01-26T07:37:45;0.30;99.90
7194;DHT22;3638;48.820;9.244;2023-01-26T07:40:14;0.20;99.90
7194;DHT22;3638;48.820;9.244;2023-01-26T07:42:41;0.10;99.90
7194;DHT22;3638;48.820;9.244;2023-01-26T07:45:08;0.20;99.90
7194;DHT22;3638;48.820;9.244;2023-01-26T07:47:35;0.20;99.90
7194;DHT22;3638;48.820;9.244;2023-01-26T07:50:02;0.20;99.90
7194;DHT22;3638;48.820;9.244;2023-01-26T07:52:30;0.20;99.90
7194;DHT22;3638;48.820;9.244;2023-01-26T07:54:57;0.20;99.90
7194;DHT22;3638;48.820;9.244;2023-01-26T07:57:25;0.20;99.90
7194;DHT22;3638;48.820;9.244;2023-01-26T07:59:52;0.20;99.90
7194;DHT22;3638;48.820;9.244;2023-01-26T08:02:19;0.20;99.90
7194;DHT22;3638;48.820;9.244;2023-01-26T08:04:45;0.30;99.90
7194;DHT22;3638;48.820;9.244;2023-01-26T08:07:13;0.40;99.90
7194;DHT22;3638;48.820;9.244;2023-01-26T08:09:40;0.40;99.90
7194;DHT22;3638;48.820;9.244;2023-01-26T08:12:07;0.40;99.90
7194;DHT22;3638;48.820;9.244;2023-01-26T08:14:35;0.30;99.90
7194;DHT22;3638;48.820;9.244;2023-01-26T08:17:02;0.30;99.90
7194;DHT22;3638;48.820;9.244;2023-01-26T08:19:29;0.30;99.90
7194;DHT22;3638;48.820;9.244;2023-01-26T08:21:56;0.30;99.90
7194;DHT22;3638;48.820;9.244;2023-01-26T08:24:22;0.30;99.90
7194;DHT22;3638;48.820;9.244;2023-01-26T08:26:51;0.40;99.90
7194;DHT22;3638;48.820;9.244;2023-01-26T08:29:17;0.40;99.90
7194;DHT22;3638;48.820;9.244;2023-01-26T08:31:46;0.40;99.90
7194;DHT22;3638;48.820;9.244;2023-01-26T08:34:13;0.40;99.90
7194;DHT22;3638;48.820;9.244;2023-01-26T08:36:40;0.50;99.90
7194;DHT22;3638;48.820;9.244;2023-01-26T08:39:07;0.40;99.90
7194;DHT22;3638;48.820;9.244;2023-01-26T08:41:34;0.40;99.90
7194;DHT22;3638;48.820;9.244;2023-01-26T08:44:01;-2.00;99.90
7194;DHT22;3638;48.820;9.244;2023-01-26T08:46:28;0.50;99.90
7194;DHT22;3638;48.820;9.244;2023-01-26T08:48:56;0.50;99.90
7194;DHT22;3638;48.820;9.244;2023-01-26T08:51:22;0.70;99.90
7194;DHT22;3638;48.820;9.244;2023-01-26T08:53:49;0.70;99.90
7194;DHT22;3638;48.820;9.244;2023-01-26T08:56:19;0.80;99.90
7194;DHT22;3638;48.820;9.244;2023-01-26T08:58:46;0.80;99.90
7194;DHT22;3638;48.820;9.244;2023-01-26T09:01:14;0.90;99.90
7194;DHT22;3638;48.820;9.244;2023-01-26T09:03:42;1.00;99.90
7194;DHT22;3638;48.820;9.244;2023-01-26T09:06:12;1.00;99.90
7194;DHT22;3638;48.820;9.244;2023-01-26T09:08:40;0.90;99.90
7194;DHT22;3638;48.820;9.244;2023-01-26T09:11:08;0.80;99.90
7194;DHT22;3638;48.820;9.244;2023-01-26T09:13:35;0.90;99.90
7194;DHT22;3638;48.820;9.244;2023-01-26T09:16:03;0.90;99.90
7194;DHT22;3638;48.820;9.244;2023-01-26T09:18:30;0.70;99.90
7194;DHT22;3638;48.820;9.244;2023-01-26T09:21:02;0.70;99.90
7194;DHT22;3638;48.820;9.244;2023-01-26T09:23:32;0.70;99.90
7194;DHT22;3638;48.820;9.244;2023-01-26T09:26:00;0.70;99.90
7194;DHT22;3638;48.820;9.244;2023-01-26T09:28:28;0.80;99.90
7194;DHT22;3638;48.820;9.244;2023-01-26T09:30:54;0.70;99.90
7194;DHT22;3638;48.820;9.244;2023-01-26T09:33:21;0.70;99.90
7194;DHT22;3638;48.820;9.244;2023-01-26T09:35:49;0.80;99.90
7194;DHT22;3638;48.820;9.244;2023-01-26T09:38:16;0.80;99.90
7194;DHT22;3638;48.820;9.244;2023-01-26T09:40:57;0.70;99.90
7194;DHT22;3638;48.820;9.244;2023-01-26T09:43:34;0.70;99.90
7194;DHT22;3638;48.820;9.244;2023-01-26T09:46:16;0.80;99.90
7194;DHT22;3638;48.820;9.244;2023-01-26T09:48:52;0.70;99.90
7194;DHT22;3638;48.820;9.244;2023-01-26T09:51:30;0.80;99.90
7194;DHT22;3638;48.820;9.244;2023-01-26T09:54:02;0.80;99.90
7194;DHT22;3638;48.820;9.244;2023-01-26T09:56:32;0.80;99.90
7194;DHT22;3638;48.820;9.244;2023-01-26T09:59:03;0.80;99.90
7194;DHT22;3638;48.820;9.244;2023-01-26T10:01:37;0.80;99.90
7194;DHT22;3638;48.820;9.244;2023-01-26T10:04:13;0.80;99.90
7194;DHT22;3638;48.820;9.244;2023-01-26T10:06:45;1.00;99.90
7194;DHT22;3638;48.820;9.244;2023-01-26T10:09:14;1.10;99.90
7194;DHT22;3638;48.820;9.244;2023-01-26T10:11:52;1.10;99.90
7194;DHT22;3638;48.820;9.244;2023-01-26T10:14:28;0.90;99.90
7194;DHT22;3638;48.820;9.244;2023-01-26T10:16:58;0.90;99.90
7194;DHT22;3638;48.820;9.244;2023-01-26T10:19:31;0.90;99.90
7194;DHT22;3638;48.820;9.244;2023-01-26T10:22:05;1.00;99.90
7194;DHT22;3638;48.820;9.244;2023-01-26T10:24:36;0.90;99.90
7194;DHT22;3638;48.820;9.244;2023-01-26T10:27:10;0.80;99.90
7194;DHT22;3638;48.820;9.244;2023-01-26T10:29:39;0.80;99.90
7194;DHT22;3638;48.820;9.244;2023-01-26T10:32:11;0.80;99.90
7194;DHT22;3638;48.820;9.244;2023-01-26T10:34:39;0.70;99.90
7194;DHT22;3638;48.820;9.244;2023-01-26T10:37:18;0.70;99.90
7194;DHT22;3638;48.820;9.244;2023-01-26T10:39:57;0.60;99.90
7194;DHT22;3638;48.820;9.244;2023-01-26T10:42:28;0.80;99.90
7194;DHT22;3638;48.820;9.244;2023-01-26T10:44:57;0.70;99.90
7194;DHT22;3638;48.820;9.244;2023-01-26T10:47:27;0.60;99.90
7194;DHT22;3638;48.820;9.244;2023-01-26T10:50:14;0.50;99.90
7194;DHT22;3638;48.820;9.244;2023-01-26T10:52:56;0.50;99.90
7194;DHT22;3638;48.820;9.244;2023-01-26T10:55:23;0.60;99.90
7194;DHT22;3638;48.820;9.244;2023-01-26T10:57:52;0.50;99.90
7194;DHT22;3638;48.820;9.244;2023-01-26T11:00:23;0.60;99.90
7194;DHT22;3638;48.820;9.244;2023-01-26T11:02:55;0.60;99.90
7194;DHT22;3638;48.820;9.244;2023-01-26T11:05:32;0.60;99.90
7194;DHT22;3638;48.820;9.244;2023-01-26T11:07:59;1.60;99.90
7194;DHT22;3638;48.820;9.244;2023-01-26T11:10:30;0.60;99.90
7194;DHT22;3638;48.820;9.244;2023-01-26T11:13:18;0.60;99.90
7194;DHT22;3638;48.820;9.244;2023-01-26T11:15:47;0.70;99.90
7194;DHT22;3638;48.820;9.244;2023-01-26T11:18:28;0.80;99.90
7194;DHT22;3638;48.820;9.244;2023-01-26T11:21:01;0.80;99.90
7194;DHT22;3638;48.820;9.244;2023-01-26T11:23:45;0.60;99.90
7194;DHT22;3638;48.820;9.244;2023-01-26T11:26:41;0.60;99.90
7194;DHT22;3638;48.820;9.244;2023-01-26T11:29:55;0.80;99.90
7194;DHT22;3638;48.820;9.244;2023-01-26T11:32:33;0.70;99.90
7194;DHT22;3638;48.820;9.244;2023-01-26T11:35:12;0.70;99.90
7194;DHT22;3638;48.820;9.244;2023-01-26T11:37:44;0.70;99.90
7194;DHT22;3638;48.820;9.244;2023-01-26T11:40:22;0.70;99.90
7194;DHT22;3638;48.820;9.244;2023-01-26T11:43:10;0.70;99.90
7194;DHT22;3638;48.820;9.244;2023-01-26T11:46:08;0.60;99.90
7194;DHT22;3638;48.820;9.244;2023-01-26T11:49:06;0.70;99.90
7194;DHT22;3638;48.820;9.244;2023-01-26T11:51:50;0.70;99.90
7194;DHT22;3638;48.820;9.244;2023-01-26T11:54:33;0.60;99.90
7194;DHT22;3638;48.820;9.244;2023-01-26T11:57:16;0.70;99.90
7194;DHT22;3638;48.820;9.244;2023-01-26T11:59:51;0.80;99.90
7194;DHT22;3638;48.820;9.244;2023-01-26T12:02:28;0.80;99.90
7194;DHT22;3638;48.820;9.244;2023-01-26T12:05:00;0.70;99.90
7194;DHT22;3638;48.820;9.244;2023-01-26T12:07:35;0.70;99.90
7194;DHT22;3638;48.820;9.244;2023-01-26T12:10:21;0.70;99.90
7194;DHT22;3638;48.820;9.244;2023-01-26T12:12:54;0.60;99.90
7194;DHT22;3638;48.820;9.244;2023-01-26T12:15:30;0.80;99.90
7194;DHT22;3638;48.820;9.244;2023-01-26T12:18:05;0.90;99.90
7194;DHT22;3638;48.820;9.244;2023-01-26T12:20:38;0.80;99.90
7194;DHT22;3638;48.820;9.244;2023-01-26T12:23:12;0.70;99.90
7194;DHT22;3638;48.820;9.244;2023-01-26T12:25:46;0.50;99.90
7194;DHT22;3638;48.820;9.244;2023-01-26T12:28:19;0.60;99.90
7194;DHT22;3638;48.820;9.244;2023-01-26T12:30:54;0.60;99.90
7194;DHT22;3638;48.820;9.244;2023-01-26T12:33:26;0.70;99.90
7194;DHT22;3638;48.820;9.244;2023-01-26T12:36:12;0.70;99.90
7194;DHT22;3638;48.820;9.244;2023-01-26T12:38:58;0.70;99.90
7194;DHT22;3638;48.820;9.244;2023-01-26T12:41:37;0.70;99.90
7194;DHT22;3638;48.820;9.244;2023-01-26T12:44:23;0.70;99.90
7194;DHT22;3638;48.820;9.244;2023-01-26T12:46:57;0.60;99.90
7194;DHT22;3638;48.820;9.244;2023-01-26T12:49:31;0.50;99.90
7194;DHT22;3638;48.820;9.244;2023-01-26T12:52:06;0.60;99.90
7194;DHT22;3638;48.820;9.244;2023-01-26T12:54:39;0.70;99.90
7194;DHT22;3638;48.820;9.244;2023-01-26T12:57:12;0.80;99.90
7194;DHT22;3638;48.820;9.244;2023-01-26T12:59:41;0.80;99.90
7194;DHT22;3638;48.820;9.244;2023-01-26T13:02:16;0.80;99.90
7194;DHT22;3638;48.820;9.244;2023-01-26T13:04:50;0.80;99.90
7194;DHT22;3638;48.820;9.244;2023-01-26T13:07:29;0.70;99.90
7194;DHT22;3638;48.820;9.244;2023-01-26T13:10:20;0.70;99.90
7194;DHT22;3638;48.820;9.244;2023-01-26T13:12:50;0.60;99.90
7194;DHT22;3638;48.820;9.244;2023-01-26T13:15:20;0.70;99.90
7194;DHT22;3638;48.820;9.244;2023-01-26T13:17:51;0.80;99.90
7194;DHT22;3638;48.820;9.244;2023-01-26T13:20:26;0.90;99.90
7194;DHT22;3638;48.820;9.244;2023-01-26T13:22:58;0.80;99.90
7194;DHT22;3638;48.820;9.244;2023-01-26T13:25:29;0.80;99.90
7194;DHT22;3638;48.820;9.244;2023-01-26T13:27:58;0.80;99.90
7194;DHT22;3638;48.820;9.244;2023-01-26T13:30:37;0.80;99.90
7194;DHT22;3638;48.820;9.244;2023-01-26T13:33:18;0.80;99.90
7194;DHT22;3638;48.820;9.244;2023-01-26T13:35:50;0.90;99.90
7194;DHT22;3638;48.820;9.244;2023-01-26T13:38:27;0.90;99.90
7194;DHT22;3638;48.820;9.244;2023-01-26T13:40:56;0.80;99.90
7194;DHT22;3638;48.820;9.244;2023-01-26T13:43:32;0.90;99.90
7194;DHT22;3638;48.820;9.244;2023-01-26T13:46:14;0.90;99.90
7194;DHT22;3638;48.820;9.244;2023-01-26T13:48:46;1.10;99.90
7194;DHT22;3638;48.820;9.244;2023-01-26T13:51:18;1.20;99.90
7194;DHT22;3638;48.820;9.244;2023-01-26T13:53:48;1.20;99.90
7194;DHT22;3638;48.820;9.244;2023-01-26T13:56:23;1.20;99.90
7194;DHT22;3638;48.820;9.244;2023-01-26T13:59:03;1.40;99.90
7194;DHT22;3638;48.820;9.244;2023-01-26T14:01:31;1.50;99.90
7194;DHT22;3638;48.820;9.244;2023-01-26T14:04:04;1.40;99.90
7194;DHT22;3638;48.820;9.244;2023-01-26T14:06:35;1.30;99.90
7194;DHT22;3638;48.820;9.244;2023-01-26T14:09:03;1.10;99.90
7194;DHT22;3638;48.820;9.244;2023-01-26T14:11:33;1.30;99.90
7194;DHT22;3638;48.820;9.244;2023-01-26T14:14:01;1.10;99.90
7194;DHT22;3638;48.820;9.244;2023-01-26T14:16:32;1.10;99.90
7194;DHT22;3638;48.820;9.244;2023-01-26T14:19:05;1.20;99.90
7194;DHT22;3638;48.820;9.244;2023-01-26T14:21:47;1.00;99.90
7194;DHT22;3638;48.820;9.244;2023-01-26T14:24:15;0.90;99.90
7194;DHT22;3638;48.820;9.244;2023-01-26T14:26:43;1.00;99.90
7194;DHT22;3638;48.820;9.244;2023-01-26T14:29:11;1.10;99.90
7194;DHT22;3638;48.820;9.244;2023-01-26T14:31:41;1.40;99.90
7194;DHT22;3638;48.820;9.244;2023-01-26T14:34:09;1.40;99.90
7194;DHT22;3638;48.820;9.244;2023-01-26T14:36:36;1.40;99.90
7194;DHT22;3638;48.820;9.244;2023-01-26T14:39:18;1.30;99.90
7194;DHT22;3638;48.820;9.244;2023-01-26T14:41:46;1.80;99.90
7194;DHT22;3638;48.820;9.244;2023-01-26T14:44:14;1.80;99.90
7194;DHT22;3638;48.820;9.244;2023-01-26T14:46:50;2.20;99.90
7194;DHT22;3638;48.820;9.244;2023-01-26T14:49:24;1.90;99.90
7194;DHT22;3638;48.820;9.244;2023-01-26T14:52:00;1.60;99.90
7194;DHT22;3638;48.820;9.244;2023-01-26T14:54:30;1.40;99.90
7194;DHT22;3638;48.820;9.244;2023-01-26T14:56:59;1.20;99.90
7194;DHT22;3638;48.820;9.244;2023-01-26T14:59:32;1.10;99.90
7194;DHT22;3638;48.820;9.244;2023-01-26T15:02:12;1.30;99.90
7194;DHT22;3638;48.820;9.244;2023-01-26T15:04:42;1.10;99.90
7194;DHT22;3638;48.820;9.244;2023-01-26T15:07:40;1.00;99.90
7194;DHT22;3638;48.820;9.244;2023-01-26T15:10:32;1.20;99.90
7194;DHT22;3638;48.820;9.244;2023-01-26T15:13:04;1.30;99.90
7194;DHT22;3638;48.820;9.244;2023-01-26T15:15:34;1.00;99.90
7194;DHT22;3638;48.820;9.244;2023-01-26T15:18:17;1.00;99.90
7194;DHT22;3638;48.820;9.244;2023-01-26T15:20:52;0.90;99.90
7194;DHT22;3638;48.820;9.244;2023-01-26T15:23:29;2.90;99.90
7194;DHT22;3638;48.820;9.244;2023-01-26T15:26:05;1.10;99.90
7194;DHT22;3638;48.820;9.244;2023-01-26T15:28:34;1.20;99.90
7194;DHT22;3638;48.820;9.244;2023-01-26T15:31:01;1.10;99.90
7194;DHT22;3638;48.820;9.244;2023-01-26T15:33:48;1.10;99.90
7194;DHT22;3638;48.820;9.244;2023-01-26T15:36:46;0.90;99.90
7194;DHT22;3638;48.820;9.244;2023-01-26T15:39:15;0.80;99.90
7194;DHT22;3638;48.820;9.244;2023-01-26T15:41:58;0.80;99.90
7194;DHT22;3638;48.820;9.244;2023-01-26T15:44:27;0.80;99.90
7194;DHT22;3638;48.820;9.244;2023-01-26T15:46:54;0.80;99.90
7194;DHT22;3638;48.820;9.244;2023-01-26T15:49:23;0.80;99.90
7194;DHT22;3638;48.820;9.244;2023-01-26T15:51:50;0.90;99.90
7194;DHT22;3638;48.820;9.244;2023-01-26T15:54:17;0.80;99.90
7194;DHT22;3638;48.820;9.244;2023-01-26T15:56:45;1.00;99.90
7194;DHT22;3638;48.820;9.244;2023-01-26T15:59:12;1.00;99.90
7194;DHT22;3638;48.820;9.244;2023-01-26T16:01:39;0.90;99.90
7194;DHT22;3638;48.820;9.244;2023-01-26T16:04:09;1.00;99.90
7194;DHT22;3638;48.820;9.244;2023-01-26T16:06:37;1.00;99.90
7194;DHT22;3638;48.820;9.244;2023-01-26T16:09:04;0.90;99.90
7194;DHT22;3638;48.820;9.244;2023-01-26T16:11:35;0.90;99.90
7194;DHT22;3638;48.820;9.244;2023-01-26T16:14:04;0.90;99.90
7194;DHT22;3638;48.820;9.244;2023-01-26T16:16:32;0.90;99.90
7194;DHT22;3638;48.820;9.244;2023-01-26T16:18:59;1.00;99.90
7194;DHT22;3638;48.820;9.244;2023-01-26T16:21:29;1.00;99.90
7194;DHT22;3638;48.820;9.244;2023-01-26T16:23:57;1.10;99.90
7194;DHT22;3638;48.820;9.244;2023-01-26T16:26:25;1.20;99.90
7194;DHT22;3638;48.820;9.244;2023-01-26T16:28:53;1.40;99.90
7194;DHT22;3638;48.820;9.244;2023-01-26T16:31:23;1.20;99.90
7194;DHT22;3638;48.820;9.244;2023-01-26T16:33:50;1.00;99.90
7194;DHT22;3638;48.820;9.244;2023-01-26T16:36:18;0.90;99.90
7194;DHT22;3638;48.820;9.244;2023-01-26T16:38:46;0.90;99.90
7194;DHT22;3638;48.820;9.244;2023-01-26T16:41:15;0.90;99.90
7194;DHT22;3638;48.820;9.244;2023-01-26T16:43:46;0.70;99.90
7194;DHT22;3638;48.820;9.244;2023-01-26T16:46:13;0.70;99.90